默认 日期 大小 文件数 浏览量 最新下载 xml
-esp-磁力链接相关资源由用户搜索指令自动获取,结果来源于网络,本站不存储任何资料,亦不承担任何责任,请于24小时内删除,搜索到15734个磁力,显示前4000条数据,用时4ms。
    {"Los viajes de Gulliver [DVDSCR][Xvid][ESP][LimiteXvid.com].avi": 1308112896}
创建时间: 2019-03-21 15:41:56 大小:1.22 GB 文件数量:1 热度:6 最近下载:2022-04-09 06:39:12
    ... 1946) Xvid 1cd - Subs-Fra-Esp - Perry Como, Carmen Miranda [DDR ... 1946) Xvid 1cd - Subs-Fra-Esp - Perry Como, Carmen Miranda [DDR ... 1946) Xvid 1cd - Subs-Fra-Esp - Perry Como, Carmen Miranda [DDR ... 1946) Xvid 1cd - Subs-Fra-Esp - Perry Como, Carmen Miranda [DDR ...
创建时间: 2019-03-21 16:16:33 大小:814.7 MB 文件数量:6 热度:9 最近下载:2025-10-04 07:03:05
    {"Torrente 3 - El protector (2005) Full Blu-Ray": {"BDMV": {"JAR": {"00001.jar": 1999055}, "BDJO": {"00000.bdjo": 164}, "BACKUP": {"BDJO": {"00000.bdjo": 164}, "CLIPINF": {"00000.clpi": 41144, "00001.clpi": 416, "00002.clpi": 380, "00003.clpi": 516, "00004 ...
创建时间: 2019-03-21 16:45:04 大小:174.18 GB 文件数量:884 热度:14 最近下载:2025-03-29 00:53:01
    {"LEEME.nfo": 318, "Sinopsis.rtf": 960, "Up.(2009).jpg": 76132, "Up.(2009).TS.Alta.Calidad.Xvid.Esp.Latino.LanzamientosDivx.es.avi": 1381742592}
创建时间: 2019-03-21 20:04:02 大小:1.29 GB 文件数量:4 热度:5 最近下载:2025-03-17 06:41:03
    {"T1": {"Carnivale 1x01 Milfay.avi": 862210048, "Carnivale 1x03 Tipton.avi": 736421888, "Carnivale 1x07 El rio.avi": 749096960, "Carnivale 1x05 Babylon.avi": 710555648, "Carnivale 1x09 Insomnio.avi": 602232832, "Carnivale 1x04 Tempestad negra.avi": ...
创建时间: 2019-03-22 00:07:38 大小:8.05 GB 文件数量:14 热度:7 最近下载:2025-03-14 03:56:02
    {"El Vago De La Muerte-Cd1.avi": 733280256, "El Vago De La Muerte-Cd2.avi": 731045888}
创建时间: 2019-03-22 00:46:32 大小:1.36 GB 文件数量:2 热度:11 最近下载:2024-12-23 11:02:02
    ... (1947) Xvid - Audio-Eng-Esp- Subs-Eng-Esp- Victor Mature, Richard Widmark ... (1947) Xvid - Audio-Eng-Esp- Subs-Eng-Esp- Victor Mature, Richard Widmark ... (1947) Xvid - Audio-Eng-Esp- Subs-Eng-Esp- Victor Mature, Richard Widmark ...
创建时间: 2019-03-22 19:56:03 大小:709.02 MB 文件数量:4 热度:6 最近下载:2025-02-10 04:47:01
    {"El angel y el pistolero. (1947).avi": 1640581120, "El angel y el pistolero. (1947).jpg": 38065, "El angel y el pistolero. (1947).-.jpg": 165738}
创建时间: 2019-03-22 21:23:16 大小:1.53 GB 文件数量:3 热度:11 最近下载:2025-08-06 23:36:02
    {"Votanos!!.url": 566, "Peliculas CVCD.url": 375, "Peliculas Divx.url": 126, "Tracked_by_Demonoid_com.txt": 34, "Joey-Temp 1.Cap 6. [www.DivxTotal.com] by Darth Maul.avi": 184487936}
创建时间: 2019-03-22 21:41:45 大小:175.94 MB 文件数量:5 热度:6 最近下载:2025-03-30 14:32:03
    {"El Sastre De Panama (2001)[HDRIP-XivD-AC3-ESP].avi": 1851779072, "El Sastre De Panama (2001)[HDRIP-XivD-AC3-ESP].srt": 109749}
创建时间: 2019-03-23 00:20:38 大小:1.72 GB 文件数量:2 热度:5 最近下载:2024-04-15 23:27:02
    {"Subtitulos.srt": 91464, "El Estrangulador de Rillington Place. (1971).avi": 1337907200, "El Estrangulador de Rillington Place. (1971).jpg": 81192, "El Estrangulador de Rillington Place. (1971).-.jpg": 190414}
创建时间: 2019-03-23 05:58:47 大小:1.25 GB 文件数量:4 热度:6 最近下载:2023-04-24 20:50:11
    {"Chisum. (1970).avi": 1671014760, "Chisum. (1970).jpg": 131327, "Chisum. (1970).-.jpg": 162510}
创建时间: 2019-03-23 06:44:01 大小:1.56 GB 文件数量:3 热度:5 最近下载:2023-04-24 21:00:27
    {"[EvermorE] UN-GO - 01 [1280x720p H.264 AAC].mp4": 314710379, "[EvermorE] UN-GO - 02 [1280x720p H.264 AAC].mp4": 314563309, "[EvermorE] UN-GO - 03 [1280x720p H.264 AAC].mp4": 314811926, "[EvermorE] UN-GO - 04 [1280x720p H.264 AAC].mp4": 314666458, "[ ...
创建时间: 2019-03-23 15:57:28 大小:3.22 GB 文件数量:11 热度:9 最近下载:2025-02-22 16:02:02
    {"Hemlock Grove. 2x01.avi": 573997056, "Hemlock Grove. 2x02.avi": 588017664, "Hemlock Grove. 2x03.avi": 569858048, "Hemlock Grove. 2x04.avi": 633354240, "Hemlock Grove. 2x05.avi": 569815040, "Hemlock Grove. 2x06.avi": 574484480, "Hemlock Grove. 2x07.avi": ...
创建时间: 2019-03-23 19:47:33 大小:5.34 GB 文件数量:10 热度:6 最近下载:2023-04-24 23:30:03
    {"Hemlock Grove. 2x01.avi": 573997056, "Hemlock Grove. 2x02.avi": 588017664, "Hemlock Grove. 2x03.avi": 569858048, "Hemlock Grove. 2x04.avi": 633354240, "Hemlock Grove. 2x05.avi": 569815040, "Hemlock Grove. 2x06.avi": 574484480, "Hemlock Grove. 2x07.avi": ...
创建时间: 2019-03-23 20:25:45 大小:5.34 GB 文件数量:10 热度:6 最近下载:2023-04-24 23:40:12
    {"Hemlock Grove. 1x01.avi": 627396608, "Hemlock Grove. 1x02.avi": 555988992, "Hemlock Grove. 1x03.avi": 657545216, "Hemlock Grove. 1x04.avi": 588670976, "Hemlock Grove. 1x05.avi": 591339520, "Hemlock Grove. 1x06.avi": 656603136, "Hemlock Grove. 1x07.avi": ...
创建时间: 2019-03-23 23:04:06 大小:7.34 GB 文件数量:13 热度:5 最近下载:2025-03-28 13:47:01
    {"La Resurreccion Del Mal (1996].avi": 1473701888, "La Resurreccion Del Mal (1996].srt": 52914}
创建时间: 2019-03-23 23:39:46 大小:1.37 GB 文件数量:2 热度:7 最近下载:2025-02-01 20:53:03
    {"SREHBD5IEESM3.part01.rar": 116391936, "SREHBD5IEESM3.part01.rev": 116391936, "SREHBD5IEESM3.part02.rar": 116391936, "SREHBD5IEESM3.part02.rev": 116391936, "SREHBD5IEESM3.part03.rar": 116391936, "SREHBD5IEESM3.part03.rev": 116391936, "SREHBD5IEESM3.part04 ...
创建时间: 2019-03-24 02:02:48 大小:4.33 GB 文件数量:40 热度:9 最近下载:2025-09-24 13:42:03
    {"Walk.Hard.The.Dewey.Cox.Story.Screener.Xvid.Mp3.[www.SuBTorrents.com].avi": 728377344, "Walk.Hard.The.Dewey.Cox.Story.Screener.Xvid.Mp3.[www.SuBTorrents.com].srt": 79497}
创建时间: 2019-03-24 03:29:35 大小:694.71 MB 文件数量:2 热度:8 最近下载:2025-01-31 07:47:02
    {"Fuera De Control (1999)[DVDRIP-XviD-AC3-ESP].avi": 1609203712}
创建时间: 2019-03-24 03:39:47 大小:1.5 GB 文件数量:1 热度:4 最近下载:2022-04-09 07:03:19